Time,TemperatureF,DewpointF,PressureIn,WindDirection,WindDirectionDegrees,WindSpeedMPH,WindSpeedGustMPH,Humidity,HourlyPrecipIn,Conditions,Clouds,dailyrainin,SoftwareType,DateUTC
2013-07-19 00:00:00,72.6,66.8,30.03,North,0,0.0,0.0,82,0.00,,,0.00,WUHU216HW,2013-07-19 05:00:00,
2013-07-19 00:05:00,72.6,66.8,30.04,North,0,0.0,0.0,82,0.00,,,0.00,WUHU216HW,2013-07-19 05:05:00,
2013-07-19 00:17:00,72.1,66.6,30.03,North,0,0.0,0.0,83,0.00,,,0.00,WUHU216HW,2013-07-19 05:17:00,
2013-07-19 00:22:00,72.1,66.6,30.04,North,0,0.0,0.0,84,0.00,,,0.00,WUHU216HW,2013-07-19 05:22:00,
2013-07-19 00:27:00,72.1,66.6,30.04,North,0,0.0,0.0,84,0.00,,,0.00,WUHU216HW,2013-07-19 05:27:00,
2013-07-19 00:32:00,72.1,66.6,30.03,North,0,0.0,0.0,84,0.00,,,0.00,WUHU216HW,2013-07-19 05:32:00,
2013-07-19 00:37:00,72.1,66.6,30.03,North,0,0.0,0.0,84,0.00,,,0.00,WUHU216HW,2013-07-19 05:37:00,
2013-07-19 00:49:00,72.3,67.5,30.03,North,0,0.0,0.0,85,0.00,,,0.00,WUHU216HW,2013-07-19 05:49:00,
2013-07-19 00:50:00,72.3,67.5,30.03,North,0,0.0,0.0,85,0.00,,,0.00,WUHU216HW,2013-07-19 05:50:00,
2013-07-19 00:55:00,72.3,67.5,30.03,North,0,0.0,0.0,85,0.00,,,0.00,WUHU216HW,2013-07-19 05:55:00,
2013-07-19 01:07:00,71.9,67.1,30.03,North,0,0.0,0.0,85,0.00,,,0.00,WUHU216HW,2013-07-19 06:07:00,
2013-07-19 01:12:00,71.7,67.0,30.03,North,0,0.0,0.0,85,0.00,,,0.00,WUHU216HW,2013-07-19 06:12:00,
2013-07-19 01:17:00,71.7,67.0,30.03,North,0,0.0,0.0,85,0.00,,,0.00,WUHU216HW,2013-07-19 06:17:00,
2013-07-19 01:22:00,71.7,67.3,30.03,North,0,0.0,0.0,86,0.00,,,0.00,WUHU216HW,2013-07-19 06:22:00,
2013-07-19 01:27:00,71.6,67.1,30.03,North,0,0.0,0.0,86,0.00,,,0.00,WUHU216HW,2013-07-19 06:27:00,
2013-07-19 01:32:00,71.6,67.1,30.03,North,0,0.0,0.0,86,0.00,,,0.00,WUHU216HW,2013-07-19 06:32:00,
2013-07-19 01:46:00,71.7,67.6,30.03,North,0,0.0,0.0,87,0.00,,,0.00,WUHU216HW,2013-07-19 06:46:00,
2013-07-19 02:42:00,71.4,67.6,30.03,North,0,0.0,0.0,88,0.00,,,0.00,WUHU216HW,2013-07-19 07:42:00,
2013-07-19 02:49:00,71.4,67.6,30.03,North,0,0.0,0.0,88,0.00,,,0.00,WUHU216HW,2013-07-19 07:49:00,
2013-07-19 03:27:00,71.0,67.6,30.03,North,0,0.0,0.0,89,0.00,,,0.00,WUHU216HW,2013-07-19 08:27:00,
2013-07-19 03:32:00,70.8,67.4,30.03,North,0,0.0,0.0,89,0.00,,,0.00,WUHU216HW,2013-07-19 08:32:00,
2013-07-19 03:37:00,70.8,67.4,30.03,North,0,0.0,0.0,89,0.00,,,0.00,WUHU216HW,2013-07-19 08:37:00,
2013-07-19 03:42:00,70.8,67.4,30.03,North,0,0.0,0.0,89,0.00,,,0.00,WUHU216HW,2013-07-19 08:42:00,
2013-07-19 03:47:00,70.8,67.4,30.03,North,0,0.0,0.0,89,0.00,,,0.00,WUHU216HW,2013-07-19 08:47:00,
2013-07-19 03:52:00,70.8,67.4,30.03,North,0,0.0,0.0,89,0.00,,,0.00,WUHU216HW,2013-07-19 08:52:00,
2013-07-19 04:04:00,70.5,67.1,30.03,North,0,0.0,0.0,89,0.00,,,0.00,WUHU216HW,2013-07-19 09:04:00,
2013-07-19 04:09:00,70.5,67.1,30.03,North,0,0.0,0.0,89,0.00,,,0.00,WUHU216HW,2013-07-19 09:09:00,
2013-07-19 04:21:00,70.3,66.9,30.02,North,0,0.0,0.0,89,0.00,,,0.00,WUHU216HW,2013-07-19 09:21:00,
2013-07-19 04:26:00,70.3,66.9,30.02,North,0,0.0,0.0,89,0.00,,,0.00,WUHU216HW,2013-07-19 09:26:00,
2013-07-19 04:31:00,70.3,66.9,30.02,North,0,0.0,0.0,89,0.00,,,0.00,WUHU216HW,2013-07-19 09:31:00,
2013-07-19 04:36:00,70.3,66.9,30.02,North,0,0.0,0.0,89,0.00,,,0.00,WUHU216HW,2013-07-19 09:36:00,
2013-07-19 04:41:00,70.3,66.9,30.02,North,0,0.0,0.0,89,0.00,,,0.00,WUHU216HW,2013-07-19 09:41:00,
2013-07-19 04:46:00,70.3,66.9,30.02,North,0,0.0,0.0,89,0.00,,,0.00,WUHU216HW,2013-07-19 09:46:00,
2013-07-19 05:07:00,69.6,66.2,30.02,North,0,0.0,0.0,89,0.00,,,0.00,WUHU216HW,2013-07-19 10:07:00,
2013-07-19 05:12:00,69.6,66.2,30.02,North,0,0.0,0.0,89,0.00,,,0.00,WUHU216HW,2013-07-19 10:12:00,
2013-07-19 05:30:00,69.0,65.6,30.02,North,0,0.0,0.0,89,0.00,,,0.00,WUHU216HW,2013-07-19 10:30:00,
2013-07-19 05:35:00,69.0,65.6,30.02,North,0,0.0,0.0,89,0.00,,,0.00,WUHU216HW,2013-07-19 10:35:00,
2013-07-19 05:40:00,69.4,66.0,30.03,North,0,0.0,0.0,89,0.00,,,0.00,WUHU216HW,2013-07-19 10:40:00,
2013-07-19 06:48:00,70.8,67.8,30.04,North,0,0.0,0.0,90,0.00,,,0.00,WUHU216HW,2013-07-19 11:48:00,
2013-07-19 06:53:00,70.8,67.8,30.04,North,0,0.0,0.0,90,0.00,,,0.00,WUHU216HW,2013-07-19 11:53:00,
2013-07-19 07:08:00,70.5,67.4,30.05,North,0,0.0,0.0,90,0.00,,,0.00,WUHU216HW,2013-07-19 12:08:00,
2013-07-19 07:13:00,70.5,67.4,30.04,North,0,0.0,0.0,90,0.00,,,0.00,WUHU216HW,2013-07-19 12:13:00,
2013-07-19 07:18:00,70.5,67.4,30.04,North,0,0.0,0.0,90,0.00,,,0.00,WUHU216HW,2013-07-19 12:18:00,
2013-07-19 07:38:00,71.2,68.1,30.04,North,0,0.0,0.0,90,0.00,,,0.00,WUHU216HW,2013-07-19 12:38:00,
2013-07-19 07:43:00,71.2,68.1,30.04,North,0,0.0,0.0,90,0.00,,,0.00,WUHU216HW,2013-07-19 12:43:00,
2013-07-19 07:46:00,71.4,68.3,30.05,North,0,0.0,0.0,90,0.00,,,0.00,WUHU216HW,2013-07-19 12:46:00,
2013-07-19 07:48:00,71.2,68.1,30.04,North,0,0.0,0.0,90,0.00,,,0.00,WUHU216HW,2013-07-19 12:48:00,
2013-07-19 07:53:00,71.4,68.3,30.05,North,0,0.0,0.0,90,0.00,,,0.00,WUHU216HW,2013-07-19 12:53:00,
2013-07-19 08:05:00,72.1,69.0,30.05,North,0,0.0,0.0,90,0.00,,,0.00,WUHU216HW,2013-07-19 13:05:00,
2013-07-19 08:06:00,71.4,68.3,30.05,North,0,0.0,0.0,90,0.00,,,0.00,WUHU216HW,2013-07-19 13:06:00,
2013-07-19 08:11:00,72.1,69.0,30.05,North,0,0.0,0.0,90,0.00,,,0.00,WUHU216HW,2013-07-19 13:11:00,
2013-07-19 08:32:00,73.0,69.9,30.05,North,0,0.0,0.0,90,0.00,,,0.00,WUHU216HW,2013-07-19 13:32:00,
2013-07-19 08:45:00,73.2,70.1,30.05,North,0,0.0,0.0,90,0.00,,,0.00,WUHU216HW,2013-07-19 13:45:00,
2013-07-19 09:09:00,76.1,71.6,30.06,North,0,0.0,0.0,86,0.00,,,0.00,WUHU216HW,2013-07-19 14:09:00,
2013-07-19 09:14:00,77.1,71.6,30.06,North,0,0.0,0.0,83,0.00,,,0.00,WUHU216HW,2013-07-19 14:14:00,
2013-07-19 09:19:00,77.1,71.6,30.06,North,0,0.0,0.0,83,0.00,,,0.00,WUHU216HW,2013-07-19 14:19:00,
2013-07-19 09:24:00,78.0,70.6,30.06,North,0,0.0,0.0,78,0.00,,,0.00,WUHU216HW,2013-07-19 14:24:00,
2013-07-19 09:29:00,78.6,71.1,30.05,North,0,0.0,0.0,78,0.00,,,0.00,WUHU216HW,2013-07-19 14:29:00,
2013-07-19 09:35:00,78.6,71.1,30.05,North,0,0.0,0.0,78,0.00,,,0.00,WUHU216HW,2013-07-19 14:35:00,
2013-07-19 09:50:00,81.3,71.8,30.05,North,0,0.0,0.0,73,0.00,,,0.00,WUHU216HW,2013-07-19 14:50:00,
2013-07-19 09:59:00,82.9,71.2,30.05,North,0,0.0,0.0,68,0.00,,,0.00,WUHU216HW,2013-07-19 14:59:00,
2013-07-19 10:06:00,82.9,71.2,30.05,North,0,0.0,0.0,68,0.00,,,0.00,WUHU216HW,2013-07-19 15:06:00,
2013-07-19 10:29:00,85.6,71.5,30.05,North,0,0.0,0.0,63,0.00,,,0.00,WUHU216HW,2013-07-19 15:29:00,
2013-07-19 11:16:00,89.4,69.4,30.04,North,0,0.0,0.0,52,0.00,,,0.00,WUHU216HW,2013-07-19 16:16:00,
2013-07-19 11:19:00,89.7,70.3,30.04,North,0,0.0,0.0,53,0.00,,,0.00,WUHU216HW,2013-07-19 16:19:00,
2013-07-19 11:21:00,89.4,69.4,30.04,North,0,0.0,0.0,52,0.00,,,0.00,WUHU216HW,2013-07-19 16:21:00,
2013-07-19 11:26:00,89.7,70.3,30.04,North,0,0.0,0.0,53,0.00,,,0.00,WUHU216HW,2013-07-19 16:26:00,
2013-07-19 11:38:00,90.3,69.7,30.03,North,0,0.0,0.0,51,0.00,,,0.00,WUHU216HW,2013-07-19 16:38:00,
2013-07-19 11:39:00,90.3,69.7,30.03,North,0,0.0,0.0,51,0.00,,,0.00,WUHU216HW,2013-07-19 16:39:00,
2013-07-19 11:45:00,90.3,69.7,30.03,North,0,0.0,0.0,51,0.00,,,0.00,WUHU216HW,2013-07-19 16:45:00,
2013-07-19 11:59:00,92.1,70.8,30.03,North,0,0.0,0.0,50,0.00,,,0.00,WUHU216HW,2013-07-19 16:59:00,
2013-07-19 12:04:00,91.7,68.5,30.03,North,0,0.0,0.0,47,0.00,,,0.00,WUHU216HW,2013-07-19 17:04:00,
2013-07-19 12:09:00,91.5,67.7,30.03,North,0,0.0,0.0,48,0.00,,,0.00,WUHU216HW,2013-07-19 17:09:00,
2013-07-19 12:14:00,91.5,67.7,30.03,North,0,0.0,0.0,48,0.00,,,0.00,WUHU216HW,2013-07-19 17:14:00,
2013-07-19 12:17:00,90.3,69.1,30.03,North,0,0.0,0.0,50,0.00,,,0.00,WUHU216HW,2013-07-19 17:17:00,
2013-07-19 12:19:00,91.0,66.5,30.03,North,0,0.0,0.0,45,0.00,,,0.00,WUHU216HW,2013-07-19 17:19:00,
2013-07-19 12:24:00,90.3,69.1,30.03,North,0,0.0,0.0,50,0.00,,,0.00,WUHU216HW,2013-07-19 17:24:00,
2013-07-19 12:44:00,93.3,68.7,30.02,North,0,0.0,0.0,44,0.00,,,0.00,WUHU216HW,2013-07-19 17:44:00,
2013-07-19 13:00:00,94.1,69.3,30.01,North,0,0.0,0.0,47,0.00,,,0.00,WUHU216HW,2013-07-19 18:00:00,
2013-07-19 13:06:00,94.1,69.3,30.01,North,0,0.0,0.0,47,0.00,,,0.00,WUHU216HW,2013-07-19 18:06:00,
2013-07-19 13:13:00,92.1,68.8,30.01,North,0,0.0,0.0,50,0.00,,,0.00,WUHU216HW,2013-07-19 18:13:00,
2013-07-19 13:18:00,92.1,68.8,30.01,North,0,0.0,0.0,50,0.00,,,0.00,WUHU216HW,2013-07-19 18:18:00,
2013-07-19 13:57:00,94.2,68.2,29.99,North,0,0.0,0.0,43,0.00,,,0.00,WUHU216HW,2013-07-19 18:57:00,
2013-07-19 14:02:00,94.2,70.2,29.99,North,0,0.0,0.0,46,0.00,,,0.00,WUHU216HW,2013-07-19 19:02:00,
2013-07-19 14:07:00,94.2,70.2,29.99,North,0,0.0,0.0,46,0.00,,,0.00,WUHU216HW,2013-07-19 19:07:00,
2013-07-19 14:19:00,95.3,69.2,29.98,North,0,0.0,0.0,43,0.00,,,0.00,WUHU216HW,2013-07-19 19:19:00,
2013-07-19 14:24:00,95.3,69.2,29.98,North,0,0.0,0.0,43,0.00,,,0.00,WUHU216HW,2013-07-19 19:24:00,
2013-07-19 14:40:00,95.3,69.2,29.98,North,0,0.0,0.0,43,0.00,,,0.00,WUHU216HW,2013-07-19 19:40:00,
2013-07-19 14:45:00,96.8,69.8,29.98,North,0,0.0,0.0,42,0.00,,,0.00,WUHU216HW,2013-07-19 19:45:00,
2013-07-19 14:50:00,97.3,70.3,29.97,North,0,0.0,0.0,40,0.00,,,0.00,WUHU216HW,2013-07-19 19:50:00,
2013-07-19 14:55:00,97.7,67.6,29.97,North,0,0.0,0.0,38,0.00,,,0.00,WUHU216HW,2013-07-19 19:55:00,
2013-07-19 15:00:00,97.7,67.6,29.97,North,0,0.0,0.0,38,0.00,,,0.00,WUHU216HW,2013-07-19 20:00:00,
2013-07-19 15:05:00,97.7,67.6,29.97,North,0,0.0,0.0,38,0.00,,,0.00,WUHU216HW,2013-07-19 20:05:00,
2013-07-19 15:16:00,94.1,68.0,29.97,North,0,0.0,0.0,43,0.00,,,0.00,WUHU216HW,2013-07-19 20:16:00,
2013-07-19 15:21:00,94.1,68.0,29.97,North,0,0.0,0.0,43,0.00,,,0.00,WUHU216HW,2013-07-19 20:21:00,
2013-07-19 15:26:00,95.9,70.3,29.97,North,0,0.0,0.0,44,0.00,,,0.00,WUHU216HW,2013-07-19 20:26:00,
2013-07-19 15:32:00,95.9,70.3,29.97,North,0,0.0,0.0,44,0.00,,,0.00,WUHU216HW,2013-07-19 20:32:00,
2013-07-19 15:53:00,98.9,69.6,29.96,North,0,0.0,0.0,39,0.00,,,0.00,WUHU216HW,2013-07-19 20:53:00,
2013-07-19 17:20:00,94.6,67.9,29.92,North,0,0.0,0.0,42,0.00,,,0.00,WUHU216HW,2013-07-19 22:20:00,
2013-07-19 17:25:00,95.7,67.5,29.92,North,0,0.0,0.0,40,0.00,,,0.00,WUHU216HW,2013-07-19 22:25:00,
2013-07-19 17:30:00,95.9,66.9,29.92,North,0,0.0,0.0,39,0.00,,,0.00,WUHU216HW,2013-07-19 22:30:00,
2013-07-19 17:35:00,95.9,68.3,29.91,North,0,0.0,0.0,41,0.00,,,0.00,WUHU216HW,2013-07-19 22:35:00,
2013-07-19 17:40:00,95.9,68.3,29.91,North,0,0.0,0.0,41,0.00,,,0.00,WUHU216HW,2013-07-19 22:40:00,
2013-07-19 17:51:00,93.9,66.6,29.91,North,0,0.0,0.0,41,0.00,,,0.00,WUHU216HW,2013-07-19 22:51:00,
2013-07-19 17:57:00,93.9,66.6,29.91,North,0,0.0,0.0,41,0.00,,,0.00,WUHU216HW,2013-07-19 22:57:00,
2013-07-19 18:12:00,92.1,66.2,29.91,North,0,0.0,0.0,43,0.00,,,0.00,WUHU216HW,2013-07-19 23:12:00,
2013-07-19 18:17:00,91.5,65.7,29.91,North,0,0.0,0.0,43,0.00,,,0.00,WUHU216HW,2013-07-19 23:17:00,
2013-07-19 18:22:00,91.5,65.7,29.91,North,0,0.0,0.0,43,0.00,,,0.00,WUHU216HW,2013-07-19 23:22:00,
2013-07-19 18:55:00,89.7,63.5,29.90,North,0,0.0,0.0,43,0.00,,,0.00,WUHU216HW,2013-07-19 23:55:00,
2013-07-19 19:41:00,86.3,64.3,29.90,North,0,0.0,0.0,48,0.00,,,0.00,WUHU216HW,2013-07-20 00:41:00,
2013-07-19 20:00:00,85.6,64.9,29.90,North,0,0.0,0.0,51,0.00,,,0.00,WUHU216HW,2013-07-20 01:00:00,
2013-07-19 20:05:00,85.6,64.9,29.90,North,0,0.0,0.0,52,0.00,,,0.00,WUHU216HW,2013-07-20 01:05:00,
2013-07-19 20:10:00,84.9,65.3,29.91,North,0,0.0,0.0,52,0.00,,,0.00,WUHU216HW,2013-07-20 01:10:00,
2013-07-19 20:15:00,84.9,65.3,29.91,North,0,0.0,0.0,52,0.00,,,0.00,WUHU216HW,2013-07-20 01:15:00,
2013-07-19 20:29:00,83.4,66.6,29.91,North,0,0.0,0.0,57,0.00,,,0.00,WUHU216HW,2013-07-20 01:29:00,
2013-07-19 20:34:00,83.4,66.6,29.91,North,0,0.0,0.0,57,0.00,,,0.00,WUHU216HW,2013-07-20 01:34:00,
2013-07-19 20:55:00,80.4,67.1,29.91,North,0,0.0,0.0,64,0.00,,,0.00,WUHU216HW,2013-07-20 01:55:00,
2013-07-19 21:17:00,78.6,66.2,29.92,North,0,0.0,0.0,67,0.00,,,0.00,WUHU216HW,2013-07-20 02:17:00,
2013-07-19 21:22:00,79.5,67.5,29.92,North,0,0.0,0.0,67,0.00,,,0.00,WUHU216HW,2013-07-20 02:22:00,
2013-07-19 21:32:00,79.1,67.6,29.92,North,0,0.0,0.0,68,0.00,,,0.00,WUHU216HW,2013-07-20 02:32:00,
2013-07-19 21:37:00,78.9,67.9,29.93,North,0,0.0,0.0,69,0.00,,,0.00,WUHU216HW,2013-07-20 02:37:00,
2013-07-19 21:42:00,78.4,67.8,29.94,North,0,0.0,0.0,70,0.00,,,0.00,WUHU216HW,2013-07-20 02:42:00,
2013-07-19 21:47:00,78.4,67.8,29.94,North,0,0.0,0.0,70,0.00,,,0.00,WUHU216HW,2013-07-20 02:47:00,
2013-07-19 21:52:00,78.4,67.8,29.94,North,0,0.0,0.0,70,0.00,,,0.00,WUHU216HW,2013-07-20 02:52:00,
2013-07-19 22:01:00,77.9,68.1,29.94,North,0,0.0,0.0,72,0.00,,,0.00,WUHU216HW,2013-07-20 03:01:00,
2013-07-19 23:03:00,76.6,68.4,29.97,North,0,0.0,0.0,77,0.00,,,0.00,WUHU216HW,2013-07-20 04:03:00,
2013-07-19 23:36:00,75.9,68.9,29.98,North,0,0.0,0.0,79,0.00,,,0.00,WUHU216HW,2013-07-20 04:36:00,
2013-07-19 23:41:00,75.7,68.8,29.97,North,0,0.0,0.0,79,0.00,,,0.00,WUHU216HW,2013-07-20 04:41:00,
2013-07-19 23:46:00,75.7,68.8,29.97,North,0,0.0,0.0,79,0.00,,,0.00,WUHU216HW,2013-07-20 04:46:00,
2013-07-19 23:51:00,75.7,68.8,29.97,North,0,0.0,0.0,79,0.00,,,0.00,WUHU216HW,2013-07-20 04:51:00,
2013-07-19 23:56:00,75.5,69.0,29.97,North,0,0.0,0.0,80,0.00,,,0.00,WUHU216HW,2013-07-20 04:56:00,